sensor_id;sensor_type;location;lat;lon;timestamp;temperature;humidity
4429;DHT22;2227;47.810;8.810;2023-12-20T04:49:48;4.80;99.90
4429;DHT22;2227;47.810;8.810;2023-12-20T04:52:15;4.90;99.90
4429;DHT22;2227;47.810;8.810;2023-12-20T04:54:42;4.90;99.90
4429;DHT22;2227;47.810;8.810;2023-12-20T04:57:11;4.90;99.90
4429;DHT22;2227;47.810;8.810;2023-12-20T04:59:37;4.90;99.90
4429;DHT22;2227;47.810;8.810;2023-12-20T05:02:04;4.80;99.90
4429;DHT22;2227;47.810;8.810;2023-12-20T05:04:31;4.80;99.90
4429;DHT22;2227;47.810;8.810;2023-12-20T05:06:58;4.90;99.90
4429;DHT22;2227;47.810;8.810;2023-12-20T05:09:24;4.90;99.90
4429;DHT22;2227;47.810;8.810;2023-12-20T05:11:51;4.90;99.90
4429;DHT22;2227;47.810;8.810;2023-12-20T05:14:18;5.00;99.90
4429;DHT22;2227;47.810;8.810;2023-12-20T05:16:45;4.90;99.90
4429;DHT22;2227;47.810;8.810;2023-12-20T05:19:12;4.80;99.90
4429;DHT22;2227;47.810;8.810;2023-12-20T05:21:38;4.90;99.90
4429;DHT22;2227;47.810;8.810;2023-12-20T05:24:05;4.90;99.90
4429;DHT22;2227;47.810;8.810;2023-12-20T05:26:32;4.90;99.90
4429;DHT22;2227;47.810;8.810;2023-12-20T05:28:59;4.90;99.90
4429;DHT22;2227;47.810;8.810;2023-12-20T05:31:25;5.10;99.90
4429;DHT22;2227;47.810;8.810;2023-12-20T05:33:52;5.00;99.90
4429;DHT22;2227;47.810;8.810;2023-12-20T05:36:19;5.10;99.90
4429;DHT22;2227;47.810;8.810;2023-12-20T05:38:46;5.10;99.90
4429;DHT22;2227;47.810;8.810;2023-12-20T05:41:13;5.20;99.90
4429;DHT22;2227;47.810;8.810;2023-12-20T05:43:40;5.20;99.90
4429;DHT22;2227;47.810;8.810;2023-12-20T05:46:07;5.20;99.90
4429;DHT22;2227;47.810;8.810;2023-12-20T05:48:33;5.30;99.90
4429;DHT22;2227;47.810;8.810;2023-12-20T05:51:00;5.40;99.90
4429;DHT22;2227;47.810;8.810;2023-12-20T05:53:27;5.30;99.90
4429;DHT22;2227;47.810;8.810;2023-12-20T05:55:53;5.30;99.90
4429;DHT22;2227;47.810;8.810;2023-12-20T05:58:20;5.20;99.90
4429;DHT22;2227;47.810;8.810;2023-12-20T06:00:47;5.20;99.90
4429;DHT22;2227;47.810;8.810;2023-12-20T06:03:15;5.20;99.90
4429;DHT22;2227;47.810;8.810;2023-12-20T06:05:42;5.10;99.90
4429;DHT22;2227;47.810;8.810;2023-12-20T06:08:08;5.10;99.90
4429;DHT22;2227;47.810;8.810;2023-12-20T06:10:35;5.20;99.90
4429;DHT22;2227;47.810;8.810;2023-12-20T06:13:02;5.20;99.90
4429;DHT22;2227;47.810;8.810;2023-12-20T06:15:30;5.10;99.90
4429;DHT22;2227;47.810;8.810;2023-12-20T06:17:57;5.20;99.90
4429;DHT22;2227;47.810;8.810;2023-12-20T06:20:24;5.10;99.90
4429;DHT22;2227;47.810;8.810;2023-12-20T06:22:51;5.10;99.90
4429;DHT22;2227;47.810;8.810;2023-12-20T06:25:18;5.10;99.90
4429;DHT22;2227;47.810;8.810;2023-12-20T06:27:45;5.10;99.90
4429;DHT22;2227;47.810;8.810;2023-12-20T06:30:12;5.10;99.90
4429;DHT22;2227;47.810;8.810;2023-12-20T06:32:39;5.10;99.90
4429;DHT22;2227;47.810;8.810;2023-12-20T06:35:06;5.10;99.90
4429;DHT22;2227;47.810;8.810;2023-12-20T06:37:33;5.10;99.90
4429;DHT22;2227;47.810;8.810;2023-12-20T06:40:00;5.10;99.90
4429;DHT22;2227;47.810;8.810;2023-12-20T06:42:27;5.10;99.90
4429;DHT22;2227;47.810;8.810;2023-12-20T06:44:56;5.20;99.90
4429;DHT22;2227;47.810;8.810;2023-12-20T06:47:23;5.20;99.90
4429;DHT22;2227;47.810;8.810;2023-12-20T06:49:50;5.30;99.90
4429;DHT22;2227;47.810;8.810;2023-12-20T06:52:17;5.30;99.90
4429;DHT22;2227;47.810;8.810;2023-12-20T06:54:44;5.30;99.90
4429;DHT22;2227;47.810;8.810;2023-12-20T06:57:10;5.40;99.90
4429;DHT22;2227;47.810;8.810;2023-12-20T06:59:40;5.50;99.90
4429;DHT22;2227;47.810;8.810;2023-12-20T07:02:08;5.40;99.90
4429;DHT22;2227;47.810;8.810;2023-12-20T07:04:41;5.30;99.90
4429;DHT22;2227;47.810;8.810;2023-12-20T07:07:08;5.50;99.90
4429;DHT22;2227;47.810;8.810;2023-12-20T07:09:35;5.50;99.90
4429;DHT22;2227;47.810;8.810;2023-12-20T07:12:02;5.60;99.90
4429;DHT22;2227;47.810;8.810;2023-12-20T07:14:29;5.50;99.90
4429;DHT22;2227;47.810;8.810;2023-12-20T07:16:55;5.40;99.90
4429;DHT22;2227;47.810;8.810;2023-12-20T07:19:22;5.60;99.90
4429;DHT22;2227;47.810;8.810;2023-12-20T07:21:49;5.70;99.90
4429;DHT22;2227;47.810;8.810;2023-12-20T07:24:16;5.90;99.90
4429;DHT22;2227;47.810;8.810;2023-12-20T07:26:42;5.90;99.90
4429;DHT22;2227;47.810;8.810;2023-12-20T07:29:09;6.00;99.90
4429;DHT22;2227;47.810;8.810;2023-12-20T07:31:36;6.10;99.90
4429;DHT22;2227;47.810;8.810;2023-12-20T07:34:03;6.00;99.90
4429;DHT22;2227;47.810;8.810;2023-12-20T07:36:30;6.00;99.90
4429;DHT22;2227;47.810;8.810;2023-12-20T07:38:56;6.00;99.90
4429;DHT22;2227;47.810;8.810;2023-12-20T07:41:23;6.00;99.90
4429;DHT22;2227;47.810;8.810;2023-12-20T07:43:50;5.90;99.90
4429;DHT22;2227;47.810;8.810;2023-12-20T07:46:17;5.90;99.90
4429;DHT22;2227;47.810;8.810;2023-12-20T07:48:45;5.80;99.90
4429;DHT22;2227;47.810;8.810;2023-12-20T07:51:13;5.70;99.90
4429;DHT22;2227;47.810;8.810;2023-12-20T07:53:40;5.70;99.90
4429;DHT22;2227;47.810;8.810;2023-12-20T07:56:19;5.60;99.90
4429;DHT22;2227;47.810;8.810;2023-12-20T07:58:46;5.60;99.90
4429;DHT22;2227;47.810;8.810;2023-12-20T08:01:19;5.60;99.90
4429;DHT22;2227;47.810;8.810;2023-12-20T08:03:47;5.70;99.90
4429;DHT22;2227;47.810;8.810;2023-12-20T08:06:14;5.70;99.90
4429;DHT22;2227;47.810;8.810;2023-12-20T08:08:41;5.70;99.90
4429;DHT22;2227;47.810;8.810;2023-12-20T08:11:10;5.80;99.90
4429;DHT22;2227;47.810;8.810;2023-12-20T08:13:37;5.90;99.90
4429;DHT22;2227;47.810;8.810;2023-12-20T08:16:04;5.80;99.90
4429;DHT22;2227;47.810;8.810;2023-12-20T08:18:32;6.00;99.90
4429;DHT22;2227;47.810;8.810;2023-12-20T08:20:59;6.10;99.90
4429;DHT22;2227;47.810;8.810;2023-12-20T08:23:26;6.50;99.90
4429;DHT22;2227;47.810;8.810;2023-12-20T08:25:55;6.80;99.90
4429;DHT22;2227;47.810;8.810;2023-12-20T08:28:22;7.10;99.90
4429;DHT22;2227;47.810;8.810;2023-12-20T08:30:49;7.40;99.90
4429;DHT22;2227;47.810;8.810;2023-12-20T08:33:20;7.60;99.90
4429;DHT22;2227;47.810;8.810;2023-12-20T08:35:47;7.60;99.90
4429;DHT22;2227;47.810;8.810;2023-12-20T08:38:13;7.70;99.90
4429;DHT22;2227;47.810;8.810;2023-12-20T08:40:40;7.60;99.90
4429;DHT22;2227;47.810;8.810;2023-12-20T08:43:07;7.70;99.90
4429;DHT22;2227;47.810;8.810;2023-12-20T08:45:34;7.70;99.90
4429;DHT22;2227;47.810;8.810;2023-12-20T08:48:01;7.70;99.90
4429;DHT22;2227;47.810;8.810;2023-12-20T08:50:31;8.00;99.90
4429;DHT22;2227;47.810;8.810;2023-12-20T08:52:57;8.20;99.90
4429;DHT22;2227;47.810;8.810;2023-12-20T08:55:24;8.30;99.90
4429;DHT22;2227;47.810;8.810;2023-12-20T08:57:51;8.20;99.90
4429;DHT22;2227;47.810;8.810;2023-12-20T09:00:18;7.90;99.90
4429;DHT22;2227;47.810;8.810;2023-12-20T09:02:47;7.60;99.90
4429;DHT22;2227;47.810;8.810;2023-12-20T09:05:14;7.60;99.90
4429;DHT22;2227;47.810;8.810;2023-12-20T09:07:41;7.60;99.90
4429;DHT22;2227;47.810;8.810;2023-12-20T09:10:07;7.60;99.90
4429;DHT22;2227;47.810;8.810;2023-12-20T09:12:34;7.50;99.90
4429;DHT22;2227;47.810;8.810;2023-12-20T09:15:01;7.80;99.90
4429;DHT22;2227;47.810;8.810;2023-12-20T09:17:29;8.90;99.90
4429;DHT22;2227;47.810;8.810;2023-12-20T09:19:56;10.10;99.90
4429;DHT22;2227;47.810;8.810;2023-12-20T09:22:23;11.10;99.90
4429;DHT22;2227;47.810;8.810;2023-12-20T09:24:49;11.40;99.90
4429;DHT22;2227;47.810;8.810;2023-12-20T09:27:16;10.70;99.90
4429;DHT22;2227;47.810;8.810;2023-12-20T09:29:43;9.70;99.90
4429;DHT22;2227;47.810;8.810;2023-12-20T09:32:10;8.90;99.90
4429;DHT22;2227;47.810;8.810;2023-12-20T09:34:36;8.50;99.90
4429;DHT22;2227;47.810;8.810;2023-12-20T09:37:04;8.20;99.90
4429;DHT22;2227;47.810;8.810;2023-12-20T09:39:32;8.20;99.90
4429;DHT22;2227;47.810;8.810;2023-12-20T09:42:04;8.00;99.90
4429;DHT22;2227;47.810;8.810;2023-12-20T09:44:31;7.90;99.90
4429;DHT22;2227;47.810;8.810;2023-12-20T09:46:58;7.80;99.90
4429;DHT22;2227;47.810;8.810;2023-12-20T09:49:27;7.70;99.90
4429;DHT22;2227;47.810;8.810;2023-12-20T09:51:54;7.40;99.90
4429;DHT22;2227;47.810;8.810;2023-12-20T09:54:23;7.30;99.90
4429;DHT22;2227;47.810;8.810;2023-12-20T09:56:50;7.30;99.90
4429;DHT22;2227;47.810;8.810;2023-12-20T09:59:17;7.40;99.90
4429;DHT22;2227;47.810;8.810;2023-12-20T10:01:44;7.40;99.90
4429;DHT22;2227;47.810;8.810;2023-12-20T10:04:12;7.40;99.90
4429;DHT22;2227;47.810;8.810;2023-12-20T10:06:55;7.60;99.90
4429;DHT22;2227;47.810;8.810;2023-12-20T10:09:24;7.70;99.90
4429;DHT22;2227;47.810;8.810;2023-12-20T10:11:53;7.90;99.90
4429;DHT22;2227;47.810;8.810;2023-12-20T10:14:21;8.10;99.90
4429;DHT22;2227;47.810;8.810;2023-12-20T10:16:50;8.10;99.90
4429;DHT22;2227;47.810;8.810;2023-12-20T10:19:17;8.10;99.90
4429;DHT22;2227;47.810;8.810;2023-12-20T10:21:44;8.40;99.90
4429;DHT22;2227;47.810;8.810;2023-12-20T10:24:17;8.80;99.90
4429;DHT22;2227;47.810;8.810;2023-12-20T10:26:44;9.20;99.90
4429;DHT22;2227;47.810;8.810;2023-12-20T10:29:11;8.70;99.90
4429;DHT22;2227;47.810;8.810;2023-12-20T10:31:38;8.70;99.90
4429;DHT22;2227;47.810;8.810;2023-12-20T10:34:09;8.80;99.90
4429;DHT22;2227;47.810;8.810;2023-12-20T10:36:36;8.90;99.90
4429;DHT22;2227;47.810;8.810;2023-12-20T10:39:03;9.10;99.90
4429;DHT22;2227;47.810;8.810;2023-12-20T10:41:32;9.60;99.90
4429;DHT22;2227;47.810;8.810;2023-12-20T10:44:03;9.90;99.90
4429;DHT22;2227;47.810;8.810;2023-12-20T10:46:31;11.60;99.90
4429;DHT22;2227;47.810;8.810;2023-12-20T10:48:59;11.20;99.90
4429;DHT22;2227;47.810;8.810;2023-12-20T10:51:28;10.60;99.90
4429;DHT22;2227;47.810;8.810;2023-12-20T10:53:56;9.90;99.90
4429;DHT22;2227;47.810;8.810;2023-12-20T10:56:23;9.40;99.90
4429;DHT22;2227;47.810;8.810;2023-12-20T10:58:50;9.10;99.90
4429;DHT22;2227;47.810;8.810;2023-12-20T11:01:18;8.90;99.90
4429;DHT22;2227;47.810;8.810;2023-12-20T11:03:52;8.70;99.90
4429;DHT22;2227;47.810;8.810;2023-12-20T11:06:49;8.50;99.90
4429;DHT22;2227;47.810;8.810;2023-12-20T11:09:26;8.10;99.90
4429;DHT22;2227;47.810;8.810;2023-12-20T11:12:16;7.90;99.90
4429;DHT22;2227;47.810;8.810;2023-12-20T11:14:49;7.70;99.90
4429;DHT22;2227;47.810;8.810;2023-12-20T11:17:16;7.60;99.90
4429;DHT22;2227;47.810;8.810;2023-12-20T11:22:25;7.50;99.90
4429;DHT22;2227;47.810;8.810;2023-12-20T11:24:53;7.50;99.90
4429;DHT22;2227;47.810;8.810;2023-12-20T11:27:20;7.40;99.90
4429;DHT22;2227;47.810;8.810;2023-12-20T11:29:56;7.40;99.90
4429;DHT22;2227;47.810;8.810;2023-12-20T11:34:58;7.20;99.90
4429;DHT22;2227;47.810;8.810;2023-12-20T11:37:35;7.20;99.90
4429;DHT22;2227;47.810;8.810;2023-12-20T11:40:06;7.20;99.90
4429;DHT22;2227;47.810;8.810;2023-12-20T11:42:41;7.10;99.90
4429;DHT22;2227;47.810;8.810;2023-12-20T11:45:21;7.00;99.90
4429;DHT22;2227;47.810;8.810;2023-12-20T11:47:50;7.10;99.90
4429;DHT22;2227;47.810;8.810;2023-12-20T11:50:18;7.00;99.90
4429;DHT22;2227;47.810;8.810;2023-12-20T11:52:45;7.00;99.90
4429;DHT22;2227;47.810;8.810;2023-12-20T11:55:12;7.00;99.90
4429;DHT22;2227;47.810;8.810;2023-12-20T11:57:39;7.10;99.90
4429;DHT22;2227;47.810;8.810;2023-12-20T12:00:09;7.20;99.90
4429;DHT22;2227;47.810;8.810;2023-12-20T12:02:36;7.20;99.90
4429;DHT22;2227;47.810;8.810;2023-12-20T12:05:03;7.10;99.90
4429;DHT22;2227;47.810;8.810;2023-12-20T12:07:33;7.00;99.90
4429;DHT22;2227;47.810;8.810;2023-12-20T12:10:00;7.10;99.90
4429;DHT22;2227;47.810;8.810;2023-12-20T12:12:27;7.00;99.90
4429;DHT22;2227;47.810;8.810;2023-12-20T12:14:54;7.20;99.90
4429;DHT22;2227;47.810;8.810;2023-12-20T12:17:23;7.20;99.90
4429;DHT22;2227;47.810;8.810;2023-12-20T12:19:50;7.10;99.90
4429;DHT22;2227;47.810;8.810;2023-12-20T12:22:17;7.20;99.90
4429;DHT22;2227;47.810;8.810;2023-12-20T12:24:47;7.10;99.90
4429;DHT22;2227;47.810;8.810;2023-12-20T12:27:13;7.00;99.90
4429;DHT22;2227;47.810;8.810;2023-12-20T12:29:40;6.90;99.90
4429;DHT22;2227;47.810;8.810;2023-12-20T12:32:08;6.90;99.90
4429;DHT22;2227;47.810;8.810;2023-12-20T12:34:36;6.90;99.90
4429;DHT22;2227;47.810;8.810;2023-12-20T12:37:06;7.00;99.90
4429;DHT22;2227;47.810;8.810;2023-12-20T12:39:34;7.10;99.90
4429;DHT22;2227;47.810;8.810;2023-12-20T12:42:01;7.10;99.90
4429;DHT22;2227;47.810;8.810;2023-12-20T12:44:27;7.10;99.90
4429;DHT22;2227;47.810;8.810;2023-12-20T12:46:54;7.00;99.90
4429;DHT22;2227;47.810;8.810;2023-12-20T12:49:21;7.10;99.90
4429;DHT22;2227;47.810;8.810;2023-12-20T12:51:49;7.10;99.90
4429;DHT22;2227;47.810;8.810;2023-12-20T12:54:15;7.10;99.90
4429;DHT22;2227;47.810;8.810;2023-12-20T12:56:43;7.20;99.90
4429;DHT22;2227;47.810;8.810;2023-12-20T12:59:10;7.40;99.90
4429;DHT22;2227;47.810;8.810;2023-12-20T13:01:37;7.80;99.90
4429;DHT22;2227;47.810;8.810;2023-12-20T13:04:06;8.00;99.90
4429;DHT22;2227;47.810;8.810;2023-12-20T13:06:37;8.10;99.90
4429;DHT22;2227;47.810;8.810;2023-12-20T13:09:05;8.50;99.90
4429;DHT22;2227;47.810;8.810;2023-12-20T13:11:32;8.90;99.90
4429;DHT22;2227;47.810;8.810;2023-12-20T13:13:59;9.30;99.90
4429;DHT22;2227;47.810;8.810;2023-12-20T13:16:26;9.50;99.90
4429;DHT22;2227;47.810;8.810;2023-12-20T13:18:53;9.50;99.90
4429;DHT22;2227;47.810;8.810;2023-12-20T13:21:20;9.80;99.90
4429;DHT22;2227;47.810;8.810;2023-12-20T13:23:47;10.30;99.90
4429;DHT22;2227;47.810;8.810;2023-12-20T13:26:14;10.70;99.90
4429;DHT22;2227;47.810;8.810;2023-12-20T13:28:41;10.80;99.90
4429;DHT22;2227;47.810;8.810;2023-12-20T13:31:07;10.80;99.90
4429;DHT22;2227;47.810;8.810;2023-12-20T13:33:34;10.90;99.90
4429;DHT22;2227;47.810;8.810;2023-12-20T13:36:01;10.70;99.90
4429;DHT22;2227;47.810;8.810;2023-12-20T13:38:33;10.00;99.90
4429;DHT22;2227;47.810;8.810;2023-12-20T13:41:00;9.80;99.90
4429;DHT22;2227;47.810;8.810;2023-12-20T13:43:27;9.40;99.90
4429;DHT22;2227;47.810;8.810;2023-12-20T13:45:54;9.20;99.90
4429;DHT22;2227;47.810;8.810;2023-12-20T13:48:21;9.10;99.90
4429;DHT22;2227;47.810;8.810;2023-12-20T13:50:48;9.00;99.90
4429;DHT22;2227;47.810;8.810;2023-12-20T13:53:15;8.70;99.90
4429;DHT22;2227;47.810;8.810;2023-12-20T13:55:42;8.40;99.90
4429;DHT22;2227;47.810;8.810;2023-12-20T13:58:09;8.50;99.90
4429;DHT22;2227;47.810;8.810;2023-12-20T14:00:39;8.40;99.90
4429;DHT22;2227;47.810;8.810;2023-12-20T14:03:06;8.50;99.90
4429;DHT22;2227;47.810;8.810;2023-12-20T14:05:34;8.50;99.90
4429;DHT22;2227;47.810;8.810;2023-12-20T14:08:02;8.50;99.90
4429;DHT22;2227;47.810;8.810;2023-12-20T14:10:29;8.30;99.90
4429;DHT22;2227;47.810;8.810;2023-12-20T14:12:56;8.30;99.90
4429;DHT22;2227;47.810;8.810;2023-12-20T14:15:23;8.30;99.90
4429;DHT22;2227;47.810;8.810;2023-12-20T14:17:52;8.50;99.90
4429;DHT22;2227;47.810;8.810;2023-12-20T14:20:19;8.40;99.90
4429;DHT22;2227;47.810;8.810;2023-12-20T14:22:46;8.30;99.90
4429;DHT22;2227;47.810;8.810;2023-12-20T14:25:14;8.10;99.90
4429;DHT22;2227;47.810;8.810;2023-12-20T14:27:41;8.00;99.90
4429;DHT22;2227;47.810;8.810;2023-12-20T14:30:12;7.60;99.90
4429;DHT22;2227;47.810;8.810;2023-12-20T14:32:41;7.70;99.90
4429;DHT22;2227;47.810;8.810;2023-12-20T14:35:08;7.50;99.90
4429;DHT22;2227;47.810;8.810;2023-12-20T14:37:36;7.50;99.90
4429;DHT22;2227;47.810;8.810;2023-12-20T14:40:08;7.40;99.90
4429;DHT22;2227;47.810;8.810;2023-12-20T14:42:43;7.50;99.90
4429;DHT22;2227;47.810;8.810;2023-12-20T14:45:10;7.40;99.90
4429;DHT22;2227;47.810;8.810;2023-12-20T14:47:37;7.20;99.90
4429;DHT22;2227;47.810;8.810;2023-12-20T14:50:05;7.00;99.90
4429;DHT22;2227;47.810;8.810;2023-12-20T14:52:33;6.80;99.90
4429;DHT22;2227;47.810;8.810;2023-12-20T14:55:04;6.70;99.90
4429;DHT22;2227;47.810;8.810;2023-12-20T14:57:32;6.50;99.90
4429;DHT22;2227;47.810;8.810;2023-12-20T14:59:58;6.50;99.90
4429;DHT22;2227;47.810;8.810;2023-12-20T15:02:25;6.40;99.90
4429;DHT22;2227;47.810;8.810;2023-12-20T15:04:52;6.30;99.90
4429;DHT22;2227;47.810;8.810;2023-12-20T15:07:19;6.30;99.90
4429;DHT22;2227;47.810;8.810;2023-12-20T15:09:46;6.30;99.90
4429;DHT22;2227;47.810;8.810;2023-12-20T15:12:14;6.20;99.90
4429;DHT22;2227;47.810;8.810;2023-12-20T15:14:41;6.20;99.90
4429;DHT22;2227;47.810;8.810;2023-12-20T15:17:08;6.20;99.90
4429;DHT22;2227;47.810;8.810;2023-12-20T15:19:35;6.20;99.90
4429;DHT22;2227;47.810;8.810;2023-12-20T15:22:03;6.20;99.90
4429;DHT22;2227;47.810;8.810;2023-12-20T15:24:30;6.20;99.90
4429;DHT22;2227;47.810;8.810;2023-12-20T15:27:05;6.30;99.90
4429;DHT22;2227;47.810;8.810;2023-12-20T15:29:33;6.20;99.90
4429;DHT22;2227;47.810;8.810;2023-12-20T15:32:00;6.00;99.90
4429;DHT22;2227;47.810;8.810;2023-12-20T15:34:27;6.00;99.90
4429;DHT22;2227;47.810;8.810;2023-12-20T15:36:54;6.10;99.90
4429;DHT22;2227;47.810;8.810;2023-12-20T15:39:21;6.00;99.90
4429;DHT22;2227;47.810;8.810;2023-12-20T15:41:48;5.90;99.90
4429;DHT22;2227;47.810;8.810;2023-12-20T15:44:15;5.80;99.90
4429;DHT22;2227;47.810;8.810;2023-12-20T15:46:42;5.70;99.90
4429;DHT22;2227;47.810;8.810;2023-12-20T15:49:09;5.60;99.90
4429;DHT22;2227;47.810;8.810;2023-12-20T15:51:38;5.50;99.90
4429;DHT22;2227;47.810;8.810;2023-12-20T15:54:05;5.40;99.90
4429;DHT22;2227;47.810;8.810;2023-12-20T15:56:34;5.30;99.90
4429;DHT22;2227;47.810;8.810;2023-12-20T15:59:01;5.20;99.90
4429;DHT22;2227;47.810;8.810;2023-12-20T16:01:29;5.10;99.90
4429;DHT22;2227;47.810;8.810;2023-12-20T16:03:57;5.00;99.90
4429;DHT22;2227;47.810;8.810;2023-12-20T16:06:25;5.00;99.90
4429;DHT22;2227;47.810;8.810;2023-12-20T16:08:53;4.90;99.90
4429;DHT22;2227;47.810;8.810;2023-12-20T16:11:20;4.80;99.90
4429;DHT22;2227;47.810;8.810;2023-12-20T16:13:47;4.80;99.90
4429;DHT22;2227;47.810;8.810;2023-12-20T16:16:14;4.90;99.90
4429;DHT22;2227;47.810;8.810;2023-12-20T16:18:41;4.80;99.90
4429;DHT22;2227;47.810;8.810;2023-12-20T16:21:08;4.90;99.90
4429;DHT22;2227;47.810;8.810;2023-12-20T16:23:35;4.90;99.90
4429;DHT22;2227;47.810;8.810;2023-12-20T16:26:02;4.80;99.90
4429;DHT22;2227;47.810;8.810;2023-12-20T16:28:29;4.90;99.90
4429;DHT22;2227;47.810;8.810;2023-12-20T16:30:56;5.00;99.90
4429;DHT22;2227;47.810;8.810;2023-12-20T16:33:23;4.80;99.90
4429;DHT22;2227;47.810;8.810;2023-12-20T16:35:51;4.80;99.90
4429;DHT22;2227;47.810;8.810;2023-12-20T16:38:17;4.70;99.90
4429;DHT22;2227;47.810;8.810;2023-12-20T16:40:44;4.80;99.90
4429;DHT22;2227;47.810;8.810;2023-12-20T16:43:11;4.60;99.90
4429;DHT22;2227;47.810;8.810;2023-12-20T16:45:38;4.70;99.90
4429;DHT22;2227;47.810;8.810;2023-12-20T16:48:05;4.70;99.90
4429;DHT22;2227;47.810;8.810;2023-12-20T16:50:32;4.60;99.90
4429;DHT22;2227;47.810;8.810;2023-12-20T16:52:59;4.60;99.90
4429;DHT22;2227;47.810;8.810;2023-12-20T16:55:26;4.60;99.90
4429;DHT22;2227;47.810;8.810;2023-12-20T16:57:53;4.60;99.90
4429;DHT22;2227;47.810;8.810;2023-12-20T17:00:20;4.50;99.90
4429;DHT22;2227;47.810;8.810;2023-12-20T17:02:49;4.60;99.90
4429;DHT22;2227;47.810;8.810;2023-12-20T17:05:17;4.50;99.90
4429;DHT22;2227;47.810;8.810;2023-12-20T17:07:45;4.50;99.90
4429;DHT22;2227;47.810;8.810;2023-12-20T17:10:12;4.40;99.90
4429;DHT22;2227;47.810;8.810;2023-12-20T17:12:42;4.50;99.90
4429;DHT22;2227;47.810;8.810;2023-12-20T17:15:09;4.40;99.90
4429;DHT22;2227;47.810;8.810;2023-12-20T17:17:35;4.50;99.90
4429;DHT22;2227;47.810;8.810;2023-12-20T17:20:03;4.40;99.90
4429;DHT22;2227;47.810;8.810;2023-12-20T17:22:30;4.30;99.90
4429;DHT22;2227;47.810;8.810;2023-12-20T17:24:57;4.30;99.90
4429;DHT22;2227;47.810;8.810;2023-12-20T17:27:24;4.30;99.90
4429;DHT22;2227;47.810;8.810;2023-12-20T17:29:51;4.30;99.90
4429;DHT22;2227;47.810;8.810;2023-12-20T17:32:23;4.40;99.90
4429;DHT22;2227;47.810;8.810;2023-12-20T17:34:50;4.40;99.90
4429;DHT22;2227;47.810;8.810;2023-12-20T17:37:17;4.50;99.90
4429;DHT22;2227;47.810;8.810;2023-12-20T17:39:44;4.40;99.90
4429;DHT22;2227;47.810;8.810;2023-12-20T17:42:11;4.40;99.90
4429;DHT22;2227;47.810;8.810;2023-12-20T17:44:40;4.60;99.90
4429;DHT22;2227;47.810;8.810;2023-12-20T17:47:07;4.70;99.90
4429;DHT22;2227;47.810;8.810;2023-12-20T17:49:34;4.50;99.90
4429;DHT22;2227;47.810;8.810;2023-12-20T17:52:00;4.60;99.90
4429;DHT22;2227;47.810;8.810;2023-12-20T17:54:28;4.80;99.90
4429;DHT22;2227;47.810;8.810;2023-12-20T17:56:56;4.70;99.90
4429;DHT22;2227;47.810;8.810;2023-12-20T17:59:25;4.70;99.90
4429;DHT22;2227;47.810;8.810;2023-12-20T18:01:52;4.80;99.90
4429;DHT22;2227;47.810;8.810;2023-12-20T18:04:19;4.80;99.90
4429;DHT22;2227;47.810;8.810;2023-12-20T18:06:47;4.70;99.90
4429;DHT22;2227;47.810;8.810;2023-12-20T18:09:14;4.80;99.90
4429;DHT22;2227;47.810;8.810;2023-12-20T18:11:41;4.80;99.90
4429;DHT22;2227;47.810;8.810;2023-12-20T18:14:07;4.70;99.90
4429;DHT22;2227;47.810;8.810;2023-12-20T18:16:36;4.70;99.90
4429;DHT22;2227;47.810;8.810;2023-12-20T18:19:03;4.80;99.90
4429;DHT22;2227;47.810;8.810;2023-12-20T18:21:31;4.60;99.90
4429;DHT22;2227;47.810;8.810;2023-12-20T18:23:57;4.60;99.90
4429;DHT22;2227;47.810;8.810;2023-12-20T18:26:36;4.80;99.90
4429;DHT22;2227;47.810;8.810;2023-12-20T18:29:05;4.80;99.90
4429;DHT22;2227;47.810;8.810;2023-12-20T18:31:32;4.70;99.90
4429;DHT22;2227;47.810;8.810;2023-12-20T18:33:58;4.70;99.90
4429;DHT22;2227;47.810;8.810;2023-12-20T18:36:25;4.70;99.90
4429;DHT22;2227;47.810;8.810;2023-12-20T18:38:52;4.60;99.90
4429;DHT22;2227;47.810;8.810;2023-12-20T18:41:19;4.60;99.90
4429;DHT22;2227;47.810;8.810;2023-12-20T18:43:46;4.50;99.90
4429;DHT22;2227;47.810;8.810;2023-12-20T18:46:12;4.40;99.90
4429;DHT22;2227;47.810;8.810;2023-12-20T18:48:39;4.40;99.90
4429;DHT22;2227;47.810;8.810;2023-12-20T18:51:07;4.30;99.90
4429;DHT22;2227;47.810;8.810;2023-12-20T18:53:34;4.50;99.90
4429;DHT22;2227;47.810;8.810;2023-12-20T18:56:00;4.40;99.90
4429;DHT22;2227;47.810;8.810;2023-12-20T18:58:27;4.50;99.90
4429;DHT22;2227;47.810;8.810;2023-12-20T19:00:57;4.50;99.90
4429;DHT22;2227;47.810;8.810;2023-12-20T19:03:24;4.50;99.90
4429;DHT22;2227;47.810;8.810;2023-12-20T19:05:51;4.50;99.90
4429;DHT22;2227;47.810;8.810;2023-12-20T19:08:18;4.50;99.90
4429;DHT22;2227;47.810;8.810;2023-12-20T19:10:45;4.50;99.90
4429;DHT22;2227;47.810;8.810;2023-12-20T19:13:12;4.50;99.90
4429;DHT22;2227;47.810;8.810;2023-12-20T19:15:38;4.40;99.90
4429;DHT22;2227;47.810;8.810;2023-12-20T19:18:05;4.50;99.90
4429;DHT22;2227;47.810;8.810;2023-12-20T19:20:32;4.60;99.90
4429;DHT22;2227;47.810;8.810;2023-12-20T19:22:59;4.70;99.90
4429;DHT22;2227;47.810;8.810;2023-12-20T19:25:26;4.70;99.90
4429;DHT22;2227;47.810;8.810;2023-12-20T19:27:52;4.60;99.90
4429;DHT22;2227;47.810;8.810;2023-12-20T19:30:19;4.50;99.90
4429;DHT22;2227;47.810;8.810;2023-12-20T19:32:46;4.70;99.90
4429;DHT22;2227;47.810;8.810;2023-12-20T19:35:13;4.70;99.90
4429;DHT22;2227;47.810;8.810;2023-12-20T19:37:40;4.70;99.90
4429;DHT22;2227;47.810;8.810;2023-12-20T19:40:07;4.70;99.90
4429;DHT22;2227;47.810;8.810;2023-12-20T19:42:34;4.70;99.90
4429;DHT22;2227;47.810;8.810;2023-12-20T19:45:05;4.80;99.90
4429;DHT22;2227;47.810;8.810;2023-12-20T19:47:32;4.80;99.90
4429;DHT22;2227;47.810;8.810;2023-12-20T19:49:59;5.00;99.90
4429;DHT22;2227;47.810;8.810;2023-12-20T19:52:26;5.00;99.90
4429;DHT22;2227;47.810;8.810;2023-12-20T19:54:54;4.80;99.90
4429;DHT22;2227;47.810;8.810;2023-12-20T19:57:20;4.70;99.90
4429;DHT22;2227;47.810;8.810;2023-12-20T19:59:50;4.70;99.90
4429;DHT22;2227;47.810;8.810;2023-12-20T20:02:17;4.70;99.90
4429;DHT22;2227;47.810;8.810;2023-12-20T20:04:44;4.70;99.90
4429;DHT22;2227;47.810;8.810;2023-12-20T20:07:11;4.80;99.90
4429;DHT22;2227;47.810;8.810;2023-12-20T20:09:41;4.80;99.90
4429;DHT22;2227;47.810;8.810;2023-12-20T20:12:08;4.80;99.90
4429;DHT22;2227;47.810;8.810;2023-12-20T20:14:35;4.80;99.90
4429;DHT22;2227;47.810;8.810;2023-12-20T20:17:02;4.80;99.90
4429;DHT22;2227;47.810;8.810;2023-12-20T20:19:29;4.80;99.90
4429;DHT22;2227;47.810;8.810;2023-12-20T20:21:57;4.90;99.90
4429;DHT22;2227;47.810;8.810;2023-12-20T20:24:24;5.00;99.90
4429;DHT22;2227;47.810;8.810;2023-12-20T20:26:51;4.90;99.90
4429;DHT22;2227;47.810;8.810;2023-12-20T20:29:18;4.90;99.90
4429;DHT22;2227;47.810;8.810;2023-12-20T20:31:45;4.90;99.90
4429;DHT22;2227;47.810;8.810;2023-12-20T20:34:12;4.80;99.90
4429;DHT22;2227;47.810;8.810;2023-12-20T20:36:38;4.90;99.90
4429;DHT22;2227;47.810;8.810;2023-12-20T20:39:05;4.90;99.90
4429;DHT22;2227;47.810;8.810;2023-12-20T20:41:32;4.90;99.90
4429;DHT22;2227;47.810;8.810;2023-12-20T20:43:58;4.90;99.90
4429;DHT22;2227;47.810;8.810;2023-12-20T20:46:25;4.90;99.90
4429;DHT22;2227;47.810;8.810;2023-12-20T20:48:53;5.00;99.90
4429;DHT22;2227;47.810;8.810;2023-12-20T20:51:20;5.00;99.90
4429;DHT22;2227;47.810;8.810;2023-12-20T20:53:47;5.10;99.90
4429;DHT22;2227;47.810;8.810;2023-12-20T20:56:24;5.10;99.90
4429;DHT22;2227;47.810;8.810;2023-12-20T20:58:51;5.20;99.90
4429;DHT22;2227;47.810;8.810;2023-12-20T21:01:19;5.20;99.90
4429;DHT22;2227;47.810;8.810;2023-12-20T21:03:45;5.20;99.90
4429;DHT22;2227;47.810;8.810;2023-12-20T21:06:12;4.90;99.90
4429;DHT22;2227;47.810;8.810;2023-12-20T21:08:39;4.90;99.90
4429;DHT22;2227;47.810;8.810;2023-12-20T21:11:06;4.90;99.90
4429;DHT22;2227;47.810;8.810;2023-12-20T21:13:32;5.10;99.90